createdAt,value
2018-10-18T00:00:14.867Z,71.70
2018-10-18T00:02:43.008Z,65.90
2018-10-18T00:05:11.187Z,73.20
2018-10-18T00:07:39.386Z,71.83
2018-10-18T00:10:08.182Z,66.43
2018-10-18T00:12:36.395Z,74.60
2018-10-18T00:15:04.812Z,70.93
2018-10-18T00:17:38.248Z,74.17
2018-10-18T00:20:06.751Z,69.27
2018-10-18T00:22:34.872Z,67.47
2018-10-18T00:25:03.047Z,70.80
2018-10-18T00:27:31.303Z,73.07
2018-10-18T00:29:59.523Z,67.03
2018-10-18T00:32:27.634Z,73.47
2018-10-18T00:34:55.837Z,76.90
2018-10-18T00:37:24.884Z,89.40
2018-10-18T00:39:53.059Z,84.70
2018-10-18T00:42:21.248Z,89.13
2018-10-18T00:44:49.425Z,78.83
2018-10-18T00:47:17.599Z,83.37
2018-10-18T00:49:45.795Z,88.10
2018-10-18T00:52:14.027Z,86.20
2018-10-18T00:54:42.207Z,99.40
2018-10-18T00:57:10.411Z,100.83
2018-10-18T00:59:38.619Z,101.57
2018-10-18T01:02:06.825Z,101.77
2018-10-18T01:04:34.994Z,99.50
2018-10-18T01:07:03.204Z,104.13
2018-10-18T01:09:31.392Z,97.70
2018-10-18T01:11:59.625Z,101.37
2018-10-18T01:14:27.736Z,114.73
2018-10-18T01:17:01.056Z,109.70
2018-10-18T01:19:29.271Z,115.13
2018-10-18T01:21:57.443Z,100.90
2018-10-18T01:24:25.685Z,125.37
2018-10-18T01:26:53.877Z,118.80
2018-10-18T01:29:22.089Z,131.33
2018-10-18T01:31:50.300Z,128.33
2018-10-18T01:34:18.484Z,123.20
2018-10-18T01:36:46.647Z,124.67
2018-10-18T01:39:14.816Z,135.03
2018-10-18T01:41:43.001Z,129.37
2018-10-18T01:44:11.265Z,120.77
2018-10-18T01:46:39.451Z,128.03
2018-10-18T01:49:07.865Z,132.60
2018-10-18T01:51:36.339Z,133.80
2018-10-18T01:54:04.532Z,133.30
2018-10-18T01:56:32.734Z,139.90
2018-10-18T01:59:00.942Z,133.20
2018-10-18T02:01:30.004Z,143.37
2018-10-18T02:03:58.231Z,137.30
2018-10-18T02:06:26.603Z,133.07
2018-10-18T02:08:54.811Z,144.03
2018-10-18T02:11:22.991Z,131.83
2018-10-18T02:13:51.158Z,132.10
2018-10-18T02:16:19.395Z,127.40
2018-10-18T02:18:47.632Z,128.63
2018-10-18T02:21:15.835Z,120.17
2018-10-18T02:23:44.026Z,124.77
2018-10-18T02:26:12.202Z,129.57
2018-10-18T02:28:40.406Z,123.67
2018-10-18T02:31:08.578Z,127.37
2018-10-18T02:33:36.776Z,129.40
2018-10-18T02:36:05.348Z,129.80
2018-10-18T02:38:33.526Z,134.60
2018-10-18T02:41:01.721Z,141.10
2018-10-18T02:43:29.900Z,164.67
2018-10-18T02:45:58.091Z,162.90
2018-10-18T02:48:26.267Z,181.30
2018-10-18T02:50:54.445Z,177.03
2018-10-18T02:53:22.641Z,163.03
2018-10-18T02:55:50.827Z,186.37
2018-10-18T02:58:18.996Z,191.30
2018-10-18T03:00:47.200Z,192.13
2018-10-18T03:03:15.375Z,200.37
2018-10-18T03:05:43.630Z,206.17
2018-10-18T03:08:11.792Z,187.33
2018-10-18T03:10:39.982Z,192.77
2018-10-18T03:13:08.167Z,200.60
2018-10-18T03:15:36.355Z,198.73
2018-10-18T03:18:04.999Z,203.60
2018-10-18T03:20:33.195Z,195.80
2018-10-18T03:23:01.387Z,192.20
2018-10-18T03:25:29.581Z,194.87
2018-10-18T03:27:57.779Z,207.57
2018-10-18T03:30:25.972Z,184.50
2018-10-18T03:32:54.178Z,188.40
2018-10-18T03:35:22.373Z,192.33
2018-10-18T03:37:50.552Z,186.23
2018-10-18T03:40:18.753Z,202.60
2018-10-18T03:42:46.930Z,187.10
2018-10-18T03:45:15.114Z,201.67
2018-10-18T03:47:43.316Z,194.50
2018-10-18T03:50:11.519Z,194.80
2018-10-18T03:52:39.730Z,194.07
2018-10-18T03:55:07.957Z,182.70
2018-10-18T03:57:36.149Z,186.67
2018-10-18T04:00:04.379Z,204.53
2018-10-18T04:02:32.546Z,190.70
2018-10-18T04:05:00.733Z,196.47
2018-10-18T04:07:28.909Z,187.63
2018-10-18T04:09:57.099Z,189.30
2018-10-18T04:12:25.345Z,176.63
2018-10-18T04:14:53.484Z,186.80
2018-10-18T04:17:21.675Z,196.07
2018-10-18T04:19:49.875Z,194.53
2018-10-18T04:22:18.082Z,189.20
2018-10-18T04:24:46.267Z,175.70
2018-10-18T04:27:14.467Z,173.80
2018-10-18T04:29:42.645Z,164.27
2018-10-18T04:32:10.869Z,161.73
2018-10-18T04:34:39.070Z,161.33
2018-10-18T04:37:07.375Z,163.53
2018-10-18T04:39:35.584Z,149.07
2018-10-18T04:42:03.940Z,147.60
2018-10-18T04:44:32.063Z,149.17
2018-10-18T04:47:00.301Z,143.87
2018-10-18T04:49:28.445Z,140.47
2018-10-18T04:51:56.646Z,137.83
2018-10-18T04:54:24.860Z,135.23
2018-10-18T04:56:53.233Z,128.67
2018-10-18T04:59:21.308Z,130.47
2018-10-18T05:01:49.518Z,127.20
2018-10-18T05:04:17.715Z,130.07
2018-10-18T05:06:45.903Z,124.70
2018-10-18T05:09:14.119Z,106.17
2018-10-18T05:11:42.334Z,113.53
2018-10-18T05:14:10.478Z,114.77
2018-10-18T05:16:38.683Z,115.10
2018-10-18T05:19:06.982Z,138.53
2018-10-18T05:21:35.152Z,152.13
2018-10-18T05:24:04.820Z,144.67
2018-10-18T05:26:32.982Z,140.57
2018-10-18T05:29:01.163Z,133.33
2018-10-18T05:31:29.394Z,135.10
2018-10-18T05:33:57.532Z,133.97
2018-10-18T05:36:25.721Z,131.53
2018-10-18T05:38:53.901Z,133.47
2018-10-18T05:41:22.074Z,126.00
2018-10-18T05:43:51.315Z,117.03
2018-10-18T05:46:19.486Z,129.00
2018-10-18T05:48:49.504Z,115.53
2018-10-18T05:51:17.705Z,124.50
2018-10-18T05:53:47.003Z,111.70
2018-10-18T05:56:15.159Z,114.63
2018-10-18T05:58:43.727Z,105.47
2018-10-18T06:01:12.029Z,122.50
2018-10-18T06:03:41.930Z,123.70
2018-10-18T06:06:10.135Z,107.80
2018-10-18T06:08:39.823Z,102.30
2018-10-18T06:11:22.408Z,114.30
2018-10-18T06:13:51.014Z,100.50
2018-10-18T06:16:20.187Z,102.80
2018-10-18T06:18:48.472Z,107.17
2018-10-18T06:21:16.671Z,109.87
2018-10-18T06:23:44.968Z,98.87
2018-10-18T06:26:13.164Z,102.97
2018-10-18T06:28:41.352Z,111.40
2018-10-18T06:31:09.699Z,107.37
2018-10-18T06:33:37.812Z,101.33
2018-10-18T06:36:06.057Z,103.47
2018-10-18T06:38:34.259Z,105.87
2018-10-18T06:41:02.554Z,100.37
2018-10-18T06:43:34.912Z,95.40
2018-10-18T06:46:03.107Z,107.80
2018-10-18T06:48:31.341Z,114.17
2018-10-18T06:50:59.540Z,103.77
2018-10-18T06:53:27.735Z,100.63
2018-10-18T06:55:56.084Z,101.47
2018-10-18T06:58:24.256Z,93.57
2018-10-18T07:00:52.650Z,91.50
2018-10-18T07:03:20.908Z,90.83
2018-10-18T07:05:49.129Z,100.37
2018-10-18T07:08:17.296Z,85.07
2018-10-18T07:10:45.504Z,93.90
2018-10-18T07:13:13.666Z,85.90
2018-10-18T07:15:41.873Z,84.93
2018-10-18T07:18:10.330Z,85.63
2018-10-18T07:20:38.308Z,84.43
2018-10-18T07:23:06.674Z,79.90
2018-10-18T07:25:34.884Z,77.40
2018-10-18T07:28:03.075Z,85.07
2018-10-18T07:30:31.413Z,81.17
2018-10-18T07:32:59.595Z,82.03
2018-10-18T07:35:27.791Z,78.20
2018-10-18T07:37:55.983Z,80.37
2018-10-18T07:40:24.183Z,82.23
2018-10-18T07:42:53.375Z,74.50
2018-10-18T07:45:22.769Z,79.23
2018-10-18T07:47:50.942Z,70.97
2018-10-18T07:50:19.150Z,84.60
2018-10-18T07:52:47.382Z,77.70
2018-10-18T07:55:15.555Z,79.47
2018-10-18T07:57:43.751Z,81.77
2018-10-18T08:00:17.833Z,76.20
2018-10-18T08:02:46.095Z,83.37
2018-10-18T08:05:14.779Z,79.00
2018-10-18T08:07:43.012Z,77.60
2018-10-18T08:10:14.616Z,83.80
2018-10-18T08:12:42.839Z,77.47
2018-10-18T08:15:13.112Z,79.93
2018-10-18T08:17:42.009Z,86.83
2018-10-18T08:20:11.100Z,80.47
2018-10-18T08:22:39.754Z,77.33
2018-10-18T08:25:07.967Z,75.10
2018-10-18T08:27:37.563Z,80.10
2018-10-18T08:30:08.422Z,75.93
2018-10-18T08:32:36.667Z,67.23
2018-10-18T08:35:05.327Z,74.50
2018-10-18T08:37:33.858Z,76.70
2018-10-18T08:40:02.113Z,74.83
2018-10-18T08:42:30.386Z,75.13
2018-10-18T08:44:58.578Z,69.47
2018-10-18T08:47:26.834Z,67.37
2018-10-18T08:49:55.073Z,63.17
2018-10-18T08:52:23.261Z,52.00
2018-10-18T08:54:51.472Z,52.97
2018-10-18T08:57:19.725Z,49.33
2018-10-18T08:59:47.936Z,43.60
2018-10-18T09:02:16.123Z,47.70
2018-10-18T09:04:44.447Z,46.33
2018-10-18T09:07:12.828Z,48.43
2018-10-18T09:09:40.963Z,43.33
2018-10-18T09:12:09.147Z,46.27
2018-10-18T09:14:37.417Z,46.97
2018-10-18T09:17:05.651Z,47.10
2018-10-18T09:19:33.870Z,52.10
2018-10-18T09:22:02.115Z,47.70
2018-10-18T09:24:30.304Z,47.83
2018-10-18T09:26:58.502Z,48.47
2018-10-18T09:29:26.990Z,49.83
2018-10-18T09:31:55.199Z,50.53
2018-10-18T09:34:23.391Z,44.23
2018-10-18T09:36:51.604Z,43.53
2018-10-18T09:39:19.800Z,46.27
2018-10-18T09:41:48.239Z,43.90
2018-10-18T09:44:16.543Z,44.90
2018-10-18T09:46:44.663Z,43.30
2018-10-18T09:49:12.933Z,43.80
2018-10-18T09:51:41.062Z,40.53
2018-10-18T09:54:09.268Z,41.10
2018-10-18T09:56:37.468Z,43.63
2018-10-18T09:59:06.018Z,37.63
2018-10-18T10:01:39.451Z,38.73
2018-10-18T10:04:07.694Z,37.77
2018-10-18T10:06:35.853Z,40.60
2018-10-18T10:09:04.394Z,36.70
2018-10-18T10:11:32.643Z,39.97
2018-10-18T10:14:00.780Z,41.10
2018-10-18T10:16:28.979Z,45.13
2018-10-18T10:18:57.218Z,42.00
2018-10-18T10:21:25.418Z,42.70
2018-10-18T10:23:53.603Z,44.30
2018-10-18T10:26:21.839Z,41.83
2018-10-18T10:28:50.048Z,40.77
2018-10-18T10:31:18.290Z,47.57
2018-10-18T10:33:46.426Z,50.03
2018-10-18T10:36:14.611Z,47.90
2018-10-18T10:38:42.803Z,47.43
2018-10-18T10:41:11.097Z,50.90
2018-10-18T10:43:39.199Z,61.57
2018-10-18T10:46:07.468Z,58.20
2018-10-18T10:48:35.627Z,58.53
2018-10-18T10:51:03.865Z,57.07
2018-10-18T10:53:32.101Z,54.10
2018-10-18T10:56:00.303Z,55.97
2018-10-18T10:58:28.549Z,56.40
2018-10-18T11:01:17.048Z,50.67
2018-10-18T11:03:45.529Z,54.50
2018-10-18T11:06:14.090Z,54.10
2018-10-18T11:08:42.215Z,55.00
2018-10-18T11:11:10.974Z,51.37
2018-10-18T11:13:39.160Z,50.70
2018-10-18T11:16:07.727Z,54.60
2018-10-18T11:18:36.955Z,55.83
2018-10-18T11:21:07.556Z,49.67
2018-10-18T11:23:36.439Z,47.90
2018-10-18T11:26:05.265Z,44.97
2018-10-18T11:28:34.446Z,42.20
2018-10-18T11:31:03.263Z,44.47
2018-10-18T11:33:32.051Z,40.20
2018-10-18T11:36:00.446Z,47.30
2018-10-18T11:38:29.231Z,45.70
2018-10-18T11:40:57.728Z,45.70
2018-10-18T11:43:26.033Z,44.73
2018-10-18T11:45:54.238Z,41.97
2018-10-18T11:48:22.473Z,47.43
2018-10-18T11:50:50.685Z,41.67
2018-10-18T11:53:18.895Z,42.97
2018-10-18T11:55:47.123Z,45.20
2018-10-18T11:58:15.525Z,42.17
2018-10-18T12:00:43.717Z,51.70
2018-10-18T12:03:11.935Z,42.10
2018-10-18T12:05:40.143Z,41.40
2018-10-18T12:08:08.451Z,42.10
2018-10-18T12:10:36.555Z,45.27
2018-10-18T12:13:04.829Z,43.10
2018-10-18T12:15:33.039Z,43.30
2018-10-18T12:18:01.251Z,38.87
2018-10-18T12:20:29.467Z,41.27
2018-10-18T12:22:57.662Z,32.37
2018-10-18T12:25:25.868Z,32.00
2018-10-18T12:27:54.095Z,26.70
2018-10-18T12:30:22.295Z,26.77
2018-10-18T12:32:50.495Z,26.80
2018-10-18T12:35:18.772Z,25.30
2018-10-18T12:37:46.943Z,28.33
2018-10-18T12:40:15.206Z,28.07
2018-10-18T12:42:45.302Z,29.40
2018-10-18T12:45:13.704Z,27.17
2018-10-18T12:47:42.885Z,26.60
2018-10-18T12:50:11.115Z,26.47
2018-10-18T12:52:39.291Z,27.13
2018-10-18T12:55:07.512Z,24.70
2018-10-18T12:57:35.708Z,25.47
2018-10-18T13:00:04.183Z,23.17
2018-10-18T13:02:32.492Z,23.50
2018-10-18T13:05:00.587Z,26.30
2018-10-18T13:07:28.759Z,25.60
2018-10-18T13:09:57.045Z,23.80
2018-10-18T13:12:25.400Z,23.20
2018-10-18T13:14:53.431Z,26.67
2018-10-18T13:17:21.619Z,25.10
2018-10-18T13:19:49.814Z,25.13
2018-10-18T13:22:18.002Z,25.17
2018-10-18T13:24:46.285Z,23.53
2018-10-18T13:27:14.567Z,25.20
2018-10-18T13:29:42.783Z,23.03
2018-10-18T13:32:11.120Z,23.20
2018-10-18T13:34:39.259Z,24.77
2018-10-18T13:37:07.715Z,23.10
2018-10-18T13:39:36.016Z,23.97
2018-10-18T13:42:04.653Z,25.23
2018-10-18T13:44:33.869Z,24.67
2018-10-18T13:47:02.062Z,23.50
2018-10-18T13:49:31.030Z,22.20
2018-10-18T13:51:59.247Z,17.70
2018-10-18T13:54:28.124Z,16.80
2018-10-18T13:56:56.460Z,13.63
2018-10-18T13:59:36.035Z,12.97
2018-10-18T14:02:04.808Z,13.03
2018-10-18T14:04:34.009Z,12.00
2018-10-18T14:07:02.301Z,12.03
2018-10-18T14:09:31.636Z,14.23
2018-10-18T14:11:59.968Z,14.30
2018-10-18T14:14:28.250Z,13.07
2018-10-18T14:16:56.539Z,13.23
2018-10-18T14:19:24.764Z,11.80
2018-10-18T14:21:54.623Z,12.27
2018-10-18T14:24:23.763Z,9.53
2018-10-18T14:26:53.271Z,8.70
2018-10-18T14:29:24.477Z,9.20
2018-10-18T14:31:52.936Z,8.60
2018-10-18T14:34:21.271Z,9.70
2018-10-18T14:36:50.595Z,9.17
2018-10-18T14:39:19.727Z,8.23
2018-10-18T14:41:48.084Z,8.90
2018-10-18T14:44:18.317Z,8.73
2018-10-18T14:46:46.472Z,8.30
2018-10-18T14:49:16.390Z,8.37
2018-10-18T14:51:44.648Z,7.43
2018-10-18T14:54:12.934Z,7.57
2018-10-18T14:56:41.123Z,7.83
2018-10-18T14:59:14.147Z,8.43
2018-10-18T15:01:43.031Z,8.53
2018-10-18T15:04:12.670Z,9.03
2018-10-18T15:06:42.095Z,9.30
2018-10-18T15:09:11.456Z,9.37
2018-10-18T15:11:39.702Z,8.40
2018-10-18T15:14:08.161Z,8.33
2018-10-18T15:16:36.335Z,7.90
2018-10-18T15:19:04.533Z,7.63
2018-10-18T15:21:32.720Z,8.13
2018-10-18T15:24:00.938Z,7.30
2018-10-18T15:26:29.357Z,7.10
2018-10-18T15:28:57.419Z,7.60
2018-10-18T15:31:25.616Z,7.53
2018-10-18T15:33:53.920Z,7.70
2018-10-18T15:36:22.091Z,7.43
2018-10-18T15:38:50.472Z,7.80
2018-10-18T15:41:18.565Z,8.57
2018-10-18T15:43:46.753Z,7.27
2018-10-18T15:46:15.921Z,7.50
2018-10-18T15:48:44.183Z,7.30
2018-10-18T15:51:12.571Z,8.20
2018-10-18T15:53:42.581Z,9.00
2018-10-18T15:56:10.663Z,9.23
2018-10-18T15:58:40.432Z,11.10
2018-10-18T16:01:08.824Z,10.17
2018-10-18T16:03:37.468Z,9.87
2018-10-18T16:06:05.879Z,12.63
2018-10-18T16:08:34.092Z,10.57
2018-10-18T16:11:03.027Z,11.10
2018-10-18T16:13:32.263Z,10.80
2018-10-18T16:16:00.900Z,11.17
2018-10-18T16:18:29.307Z,11.77
2018-10-18T16:20:58.379Z,11.57
2018-10-18T16:23:27.978Z,12.30
2018-10-18T16:25:58.011Z,12.23
2018-10-18T16:28:26.367Z,11.00
2018-10-18T16:30:54.623Z,11.30
2018-10-18T16:33:22.886Z,11.27
2018-10-18T16:35:52.231Z,13.90
2018-10-18T16:38:20.606Z,13.47
2018-10-18T16:40:49.663Z,13.07
2018-10-18T16:43:17.879Z,13.57
2018-10-18T16:45:46.101Z,14.00
2018-10-18T16:48:14.501Z,15.10
2018-10-18T16:50:44.340Z,14.80
2018-10-18T16:53:12.570Z,15.90
2018-10-18T16:55:40.877Z,15.30
2018-10-18T16:58:09.223Z,16.60
2018-10-18T17:00:37.547Z,16.43
2018-10-18T17:03:05.891Z,15.20
2018-10-18T17:05:34.290Z,16.40
2018-10-18T17:08:02.688Z,15.60
2018-10-18T17:10:30.931Z,13.63
2018-10-18T17:13:00.175Z,13.33
2018-10-18T17:15:28.695Z,13.33
2018-10-18T17:17:57.063Z,11.77
2018-10-18T17:20:25.467Z,11.33
2018-10-18T17:22:53.488Z,10.63
2018-10-18T17:25:21.685Z,11.30
2018-10-18T17:27:50.051Z,10.83
2018-10-18T17:30:18.185Z,10.43
2018-10-18T17:32:46.653Z,10.20
2018-10-18T17:35:14.839Z,10.90
2018-10-18T17:37:43.051Z,11.10
2018-10-18T17:40:11.313Z,10.87
2018-10-18T17:42:39.450Z,10.77
2018-10-18T17:45:09.097Z,11.53
2018-10-18T17:47:37.312Z,12.73
2018-10-18T17:50:06.168Z,11.63
2018-10-18T17:52:34.884Z,11.53
2018-10-18T17:55:03.235Z,11.93
2018-10-18T17:57:31.695Z,12.40
2018-10-18T17:59:59.981Z,12.30
2018-10-18T18:02:28.177Z,12.97
2018-10-18T18:04:56.442Z,14.17
2018-10-18T18:07:24.708Z,15.17
2018-10-18T18:09:52.967Z,14.37
2018-10-18T18:12:21.195Z,15.70
2018-10-18T18:14:49.419Z,16.20
2018-10-18T18:17:17.689Z,16.87
2018-10-18T18:19:45.918Z,17.43
2018-10-18T18:22:14.158Z,17.47
2018-10-18T18:24:43.443Z,18.13
2018-10-18T18:27:11.710Z,19.73
2018-10-18T18:29:39.836Z,18.77
2018-10-18T18:32:08.066Z,20.70
2018-10-18T18:34:36.272Z,21.17
2018-10-18T18:37:04.484Z,22.13
2018-10-18T18:39:32.675Z,21.77
2018-10-18T18:42:00.891Z,23.40
2018-10-18T18:44:29.056Z,25.30
2018-10-18T18:46:57.264Z,24.73
2018-10-18T18:49:25.431Z,27.30
2018-10-18T18:51:53.627Z,26.53
2018-10-18T18:54:21.834Z,28.53
2018-10-18T18:56:50.027Z,28.33
2018-10-18T18:59:18.209Z,30.10
2018-10-18T19:01:46.396Z,28.60
2018-10-18T19:04:14.608Z,31.30
2018-10-18T19:06:42.839Z,30.90
2018-10-18T19:09:11.103Z,30.30
2018-10-18T19:11:39.850Z,28.00
2018-10-18T19:14:09.268Z,28.57
2018-10-18T19:16:37.512Z,26.33
2018-10-18T19:19:06.040Z,26.63
2018-10-18T19:21:36.482Z,27.43
2018-10-18T19:24:05.875Z,26.07
2018-10-18T19:26:34.132Z,26.90
2018-10-18T19:29:02.367Z,26.43
2018-10-18T19:31:30.591Z,25.47
2018-10-18T19:33:59.857Z,24.83
2018-10-18T19:36:28.992Z,27.03
2018-10-18T19:38:57.177Z,26.20
2018-10-18T19:41:26.168Z,26.60
2018-10-18T19:43:54.511Z,24.73
2018-10-18T19:46:24.027Z,24.77
2018-10-18T19:48:52.982Z,26.90
2018-10-18T19:51:21.236Z,26.20
2018-10-18T19:53:49.509Z,28.80
2018-10-18T19:56:17.760Z,25.57
2018-10-18T19:58:46.202Z,26.20
2018-10-18T20:01:14.472Z,26.77
2018-10-18T20:03:42.730Z,26.77
2018-10-18T20:06:11.005Z,27.70
2018-10-18T20:08:39.328Z,28.33
2018-10-18T20:11:08.149Z,27.00
2018-10-18T20:13:36.395Z,28.30
2018-10-18T20:16:05.295Z,28.40
2018-10-18T20:18:34.476Z,29.13
2018-10-18T20:21:02.760Z,28.77
2018-10-18T20:23:30.907Z,27.47
2018-10-18T20:25:59.970Z,29.60
2018-10-18T20:28:28.596Z,30.10
2018-10-18T20:30:56.995Z,28.83
2018-10-18T20:33:25.179Z,28.27
2018-10-18T20:35:53.365Z,30.07
2018-10-18T20:38:21.572Z,29.63
2018-10-18T20:40:49.752Z,29.50
2018-10-18T20:43:17.939Z,29.97
2018-10-18T20:45:46.159Z,29.93
2018-10-18T20:48:14.410Z,30.80
2018-10-18T20:50:42.550Z,31.40
2018-10-18T20:53:10.821Z,29.70
2018-10-18T20:55:38.938Z,30.80
2018-10-18T20:58:07.117Z,30.87
2018-10-18T21:00:35.335Z,29.73
2018-10-18T21:03:03.548Z,29.20
2018-10-18T21:05:31.724Z,31.53
2018-10-18T21:07:59.918Z,29.90
2018-10-18T21:10:28.094Z,30.00
2018-10-18T21:12:56.289Z,34.10
2018-10-18T21:15:24.472Z,32.93
2018-10-18T21:17:52.688Z,30.10
2018-10-18T21:20:20.862Z,35.43
2018-10-18T21:22:49.067Z,30.90
2018-10-18T21:25:17.268Z,34.10
2018-10-18T21:27:45.529Z,29.70
2018-10-18T21:30:13.679Z,36.30
2018-10-18T21:32:41.870Z,31.13
2018-10-18T21:35:10.148Z,30.63
2018-10-18T21:37:38.276Z,31.17
2018-10-18T21:40:06.472Z,31.30
2018-10-18T21:42:34.667Z,31.37
2018-10-18T21:45:03.801Z,33.83
2018-10-18T21:47:32.068Z,29.50
2018-10-18T21:50:00.255Z,29.33
2018-10-18T21:52:28.443Z,29.97
2018-10-18T21:54:56.639Z,29.00
2018-10-18T21:57:24.819Z,26.77
2018-10-18T21:59:53.015Z,30.93
2018-10-18T22:02:21.188Z,26.93
2018-10-18T22:04:49.390Z,27.80
2018-10-18T22:07:17.592Z,26.73
2018-10-18T22:09:45.807Z,28.30
2018-10-18T22:12:14.036Z,27.90
2018-10-18T22:14:42.232Z,26.73
2018-10-18T22:17:10.444Z,26.60
2018-10-18T22:19:38.607Z,27.57
2018-10-18T22:22:06.799Z,26.30
2018-10-18T22:24:34.987Z,27.40
2018-10-18T22:27:03.238Z,27.47
2018-10-18T22:29:31.404Z,26.27
2018-10-18T22:31:59.587Z,28.17
2018-10-18T22:34:27.788Z,27.80
2018-10-18T22:36:55.991Z,29.43
2018-10-18T22:39:24.188Z,25.97
2018-10-18T22:41:52.366Z,26.40
2018-10-18T22:44:20.538Z,26.00
2018-10-18T22:46:48.727Z,23.93
2018-10-18T22:49:16.953Z,25.77
2018-10-18T22:51:45.165Z,25.10
2018-10-18T22:54:13.346Z,26.40
2018-10-18T22:56:41.518Z,25.90
2018-10-18T22:59:09.761Z,22.77
2018-10-18T23:01:37.871Z,25.47
2018-10-18T23:04:06.089Z,23.27
2018-10-18T23:06:34.264Z,23.57
2018-10-18T23:09:02.484Z,24.30
2018-10-18T23:11:30.647Z,24.47
2018-10-18T23:13:58.848Z,24.80
2018-10-18T23:16:27.027Z,25.47
2018-10-18T23:18:55.216Z,25.80
2018-10-18T23:21:23.399Z,25.90
2018-10-18T23:23:51.603Z,27.27
2018-10-18T23:26:19.819Z,26.03
2018-10-18T23:28:48.017Z,28.70
2018-10-18T23:31:16.204Z,28.73
2018-10-18T23:33:44.372Z,26.67
2018-10-18T23:36:12.580Z,30.37
2018-10-18T23:38:40.754Z,28.13
2018-10-18T23:41:08.984Z,29.07
2018-10-18T23:43:37.096Z,34.43
2018-10-18T23:46:05.578Z,31.10
2018-10-18T23:48:33.759Z,34.33
2018-10-18T23:51:01.984Z,37.00
2018-10-18T23:53:30.151Z,31.40
2018-10-18T23:55:58.360Z,35.43
2018-10-18T23:58:26.551Z,35.97
